sensor_id;sensor_type;location;lat;lon;timestamp;P1;durP1;ratioP1;P2;durP2;ratioP2
68353;SDS011;55274;43.060;25.618;2024-03-02T00:02:42;42.67;;;11.40;;
68353;SDS011;55274;43.060;25.618;2024-03-02T00:05:16;74.18;;;13.07;;
68353;SDS011;55274;43.060;25.618;2024-03-02T00:07:47;43.70;;;12.32;;
68353;SDS011;55274;43.060;25.618;2024-03-02T00:10:21;31.95;;;11.48;;
68353;SDS011;55274;43.060;25.618;2024-03-02T00:12:57;24.30;;;10.88;;
68353;SDS011;55274;43.060;25.618;2024-03-02T00:17:55;29.02;;;11.18;;
68353;SDS011;55274;43.060;25.618;2024-03-02T00:20:21;33.88;;;12.23;;
68353;SDS011;55274;43.060;25.618;2024-03-02T00:22:51;24.85;;;11.23;;
68353;SDS011;55274;43.060;25.618;2024-03-02T00:25:17;30.70;;;11.43;;
68353;SDS011;55274;43.060;25.618;2024-03-02T00:27:47;29.75;;;11.13;;
68353;SDS011;55274;43.060;25.618;2024-03-02T00:33:18;33.38;;;11.10;;
68353;SDS011;55274;43.060;25.618;2024-03-02T00:35:46;27.17;;;10.75;;
68353;SDS011;55274;43.060;25.618;2024-03-02T00:38:12;24.60;;;10.93;;
68353;SDS011;55274;43.060;25.618;2024-03-02T00:40:40;29.75;;;11.73;;
68353;SDS011;55274;43.060;25.618;2024-03-02T00:43:11;29.30;;;12.25;;
68353;SDS011;55274;43.060;25.618;2024-03-02T00:46:03;33.95;;;12.57;;
68353;SDS011;55274;43.060;25.618;2024-03-02T00:48:29;28.77;;;11.98;;
68353;SDS011;55274;43.060;25.618;2024-03-02T00:50:56;28.90;;;12.02;;
68353;SDS011;55274;43.060;25.618;2024-03-02T00:53:23;25.27;;;10.80;;
68353;SDS011;55274;43.060;25.618;2024-03-02T00:55:51;31.77;;;11.07;;
68353;SDS011;55274;43.060;25.618;2024-03-02T00:58:17;25.52;;;11.07;;
68353;SDS011;55274;43.060;25.618;2024-03-02T01:00:43;29.73;;;11.38;;
68353;SDS011;55274;43.060;25.618;2024-03-02T01:03:09;33.60;;;12.25;;
68353;SDS011;55274;43.060;25.618;2024-03-02T01:05:35;33.38;;;11.18;;
68353;SDS011;55274;43.060;25.618;2024-03-02T01:08:02;29.55;;;12.60;;
68353;SDS011;55274;43.060;25.618;2024-03-02T01:10:27;33.72;;;11.93;;
68353;SDS011;55274;43.060;25.618;2024-03-02T01:12:53;28.73;;;11.85;;
68353;SDS011;55274;43.060;25.618;2024-03-02T01:15:19;34.63;;;12.43;;
68353;SDS011;55274;43.060;25.618;2024-03-02T01:17:45;33.25;;;12.48;;
68353;SDS011;55274;43.060;25.618;2024-03-02T01:20:11;38.15;;;12.88;;
68353;SDS011;55274;43.060;25.618;2024-03-02T01:22:37;34.80;;;12.13;;
68353;SDS011;55274;43.060;25.618;2024-03-02T01:25:03;33.53;;;12.07;;
68353;SDS011;55274;43.060;25.618;2024-03-02T01:27:29;38.42;;;11.90;;
68353;SDS011;55274;43.060;25.618;2024-03-02T01:29:55;37.67;;;12.38;;
68353;SDS011;55274;43.060;25.618;2024-03-02T01:32:20;49.65;;;13.40;;
68353;SDS011;55274;43.060;25.618;2024-03-02T01:34:46;43.70;;;12.15;;
68353;SDS011;55274;43.060;25.618;2024-03-02T01:37:12;34.75;;;12.00;;
68353;SDS011;55274;43.060;25.618;2024-03-02T01:39:38;29.10;;;11.40;;
68353;SDS011;55274;43.060;25.618;2024-03-02T01:42:04;40.38;;;12.77;;
68353;SDS011;55274;43.060;25.618;2024-03-02T01:44:30;30.73;;;12.05;;
68353;SDS011;55274;43.060;25.618;2024-03-02T01:46:56;28.10;;;10.48;;
68353;SDS011;55274;43.060;25.618;2024-03-02T01:49:22;27.15;;;11.50;;
68353;SDS011;55274;43.060;25.618;2024-03-02T01:51:47;33.65;;;11.05;;
68353;SDS011;55274;43.060;25.618;2024-03-02T01:54:13;45.13;;;12.57;;
68353;SDS011;55274;43.060;25.618;2024-03-02T01:56:39;33.25;;;12.02;;
68353;SDS011;55274;43.060;25.618;2024-03-02T01:59:05;27.95;;;10.65;;
68353;SDS011;55274;43.060;25.618;2024-03-02T02:01:31;27.42;;;11.73;;
68353;SDS011;55274;43.060;25.618;2024-03-02T02:03:57;29.17;;;11.07;;
68353;SDS011;55274;43.060;25.618;2024-03-02T02:06:23;27.08;;;11.18;;
68353;SDS011;55274;43.060;25.618;2024-03-02T02:08:49;33.70;;;11.77;;
68353;SDS011;55274;43.060;25.618;2024-03-02T02:11:15;28.80;;;10.82;;
68353;SDS011;55274;43.060;25.618;2024-03-02T02:13:41;30.80;;;11.70;;
68353;SDS011;55274;43.060;25.618;2024-03-02T02:16:07;25.83;;;11.25;;
68353;SDS011;55274;43.060;25.618;2024-03-02T02:18:34;30.50;;;11.23;;
68353;SDS011;55274;43.060;25.618;2024-03-02T02:21:01;27.98;;;10.90;;
68353;SDS011;55274;43.060;25.618;2024-03-02T02:23:30;37.63;;;12.18;;
68353;SDS011;55274;43.060;25.618;2024-03-02T02:25:55;25.25;;;10.27;;
68353;SDS011;55274;43.060;25.618;2024-03-02T02:28:21;24.63;;;9.73;;
68353;SDS011;55274;43.060;25.618;2024-03-02T02:30:47;25.92;;;10.48;;
68353;SDS011;55274;43.060;25.618;2024-03-02T02:33:13;26.65;;;9.82;;
68353;SDS011;55274;43.060;25.618;2024-03-02T02:35:38;23.70;;;10.18;;
68353;SDS011;55274;43.060;25.618;2024-03-02T02:38:04;21.75;;;8.95;;
68353;SDS011;55274;43.060;25.618;2024-03-02T02:40:30;22.33;;;9.50;;
68353;SDS011;55274;43.060;25.618;2024-03-02T02:42:56;22.40;;;9.75;;
68353;SDS011;55274;43.060;25.618;2024-03-02T02:45:23;24.23;;;10.13;;
68353;SDS011;55274;43.060;25.618;2024-03-02T02:47:48;26.58;;;9.77;;
68353;SDS011;55274;43.060;25.618;2024-03-02T02:50:15;24.65;;;10.32;;
68353;SDS011;55274;43.060;25.618;2024-03-02T02:52:41;33.78;;;10.80;;
68353;SDS011;55274;43.060;25.618;2024-03-02T02:55:08;22.83;;;9.65;;
68353;SDS011;55274;43.060;25.618;2024-03-02T02:57:41;26.48;;;10.10;;
68353;SDS011;55274;43.060;25.618;2024-03-02T03:00:08;26.42;;;8.30;;
68353;SDS011;55274;43.060;25.618;2024-03-02T03:02:36;21.75;;;8.85;;
68353;SDS011;55274;43.060;25.618;2024-03-02T03:07:33;24.58;;;8.85;;
68353;SDS011;55274;43.060;25.618;2024-03-02T03:10:02;24.88;;;8.98;;
68353;SDS011;55274;43.060;25.618;2024-03-02T03:12:29;42.13;;;9.55;;
68353;SDS011;55274;43.060;25.618;2024-03-02T03:14:58;25.15;;;8.52;;
68353;SDS011;55274;43.060;25.618;2024-03-02T03:17:25;22.60;;;8.95;;
68353;SDS011;55274;43.060;25.618;2024-03-02T03:19:51;28.90;;;9.32;;
68353;SDS011;55274;43.060;25.618;2024-03-02T03:22:16;30.25;;;9.85;;
68353;SDS011;55274;43.060;25.618;2024-03-02T03:24:42;26.17;;;10.02;;
68353;SDS011;55274;43.060;25.618;2024-03-02T03:27:08;23.85;;;11.10;;
68353;SDS011;55274;43.060;25.618;2024-03-02T03:29:38;31.20;;;12.27;;
68353;SDS011;55274;43.060;25.618;2024-03-02T03:32:04;35.00;;;13.52;;
68353;SDS011;55274;43.060;25.618;2024-03-02T03:34:34;40.20;;;12.98;;
68353;SDS011;55274;43.060;25.618;2024-03-02T03:37:00;30.83;;;12.35;;
68353;SDS011;55274;43.060;25.618;2024-03-02T03:39:26;23.38;;;9.95;;
68353;SDS011;55274;43.060;25.618;2024-03-02T03:41:53;30.70;;;9.65;;
68353;SDS011;55274;43.060;25.618;2024-03-02T03:44:19;24.73;;;9.05;;
68353;SDS011;55274;43.060;25.618;2024-03-02T03:46:45;29.52;;;9.18;;
68353;SDS011;55274;43.060;25.618;2024-03-02T03:49:11;19.60;;;8.15;;
68353;SDS011;55274;43.060;25.618;2024-03-02T03:51:36;45.80;;;9.88;;
68353;SDS011;55274;43.060;25.618;2024-03-02T03:54:02;26.85;;;8.38;;
68353;SDS011;55274;43.060;25.618;2024-03-02T03:56:28;21.95;;;8.95;;
68353;SDS011;55274;43.060;25.618;2024-03-02T03:58:54;22.33;;;8.60;;
68353;SDS011;55274;43.060;25.618;2024-03-02T04:01:19;22.48;;;8.93;;
68353;SDS011;55274;43.060;25.618;2024-03-02T04:03:47;23.67;;;8.95;;
68353;SDS011;55274;43.060;25.618;2024-03-02T04:06:13;27.33;;;9.13;;
68353;SDS011;55274;43.060;25.618;2024-03-02T04:08:41;20.15;;;8.88;;
68353;SDS011;55274;43.060;25.618;2024-03-02T04:11:07;36.53;;;9.65;;
68353;SDS011;55274;43.060;25.618;2024-03-02T04:13:33;26.83;;;8.77;;
68353;SDS011;55274;43.060;25.618;2024-03-02T04:15:58;23.55;;;9.07;;
68353;SDS011;55274;43.060;25.618;2024-03-02T04:18:24;31.33;;;10.40;;
68353;SDS011;55274;43.060;25.618;2024-03-02T04:20:50;24.17;;;9.88;;
68353;SDS011;55274;43.060;25.618;2024-03-02T04:23:16;31.30;;;11.82;;
68353;SDS011;55274;43.060;25.618;2024-03-02T04:25:42;36.10;;;12.18;;
68353;SDS011;55274;43.060;25.618;2024-03-02T04:28:07;28.05;;;11.98;;
68353;SDS011;55274;43.060;25.618;2024-03-02T04:30:33;32.78;;;12.50;;
68353;SDS011;55274;43.060;25.618;2024-03-02T04:32:59;34.55;;;11.60;;
68353;SDS011;55274;43.060;25.618;2024-03-02T04:35:26;30.20;;;12.65;;
68353;SDS011;55274;43.060;25.618;2024-03-02T04:37:51;32.15;;;12.18;;
68353;SDS011;55274;43.060;25.618;2024-03-02T04:40:17;32.90;;;11.90;;
68353;SDS011;55274;43.060;25.618;2024-03-02T04:42:43;33.25;;;12.07;;
68353;SDS011;55274;43.060;25.618;2024-03-02T04:45:09;31.50;;;13.13;;
68353;SDS011;55274;43.060;25.618;2024-03-02T04:47:34;37.00;;;12.18;;
68353;SDS011;55274;43.060;25.618;2024-03-02T04:50:00;32.42;;;11.68;;
68353;SDS011;55274;43.060;25.618;2024-03-02T04:52:26;31.95;;;11.48;;
68353;SDS011;55274;43.060;25.618;2024-03-02T04:54:52;26.98;;;11.45;;
68353;SDS011;55274;43.060;25.618;2024-03-02T04:57:36;38.22;;;10.52;;
68353;SDS011;55274;43.060;25.618;2024-03-02T05:00:21;32.58;;;12.18;;
68353;SDS011;55274;43.060;25.618;2024-03-02T05:02:47;35.70;;;12.10;;
68353;SDS011;55274;43.060;25.618;2024-03-02T05:05:12;42.78;;;12.63;;
68353;SDS011;55274;43.060;25.618;2024-03-02T05:07:40;31.20;;;10.07;;
68353;SDS011;55274;43.060;25.618;2024-03-02T05:10:07;28.65;;;10.98;;
68353;SDS011;55274;43.060;25.618;2024-03-02T05:12:34;34.30;;;11.25;;
68353;SDS011;55274;43.060;25.618;2024-03-02T05:15:09;38.45;;;12.60;;
68353;SDS011;55274;43.060;25.618;2024-03-02T05:17:36;30.67;;;11.77;;
68353;SDS011;55274;43.060;25.618;2024-03-02T05:20:05;29.83;;;11.27;;
68353;SDS011;55274;43.060;25.618;2024-03-02T05:22:35;32.33;;;10.48;;
68353;SDS011;55274;43.060;25.618;2024-03-02T05:25:02;33.33;;;12.07;;
68353;SDS011;55274;43.060;25.618;2024-03-02T05:27:28;36.63;;;11.98;;
68353;SDS011;55274;43.060;25.618;2024-03-02T05:29:54;34.90;;;12.52;;
68353;SDS011;55274;43.060;25.618;2024-03-02T05:32:20;45.50;;;13.23;;
68353;SDS011;55274;43.060;25.618;2024-03-02T05:34:46;38.40;;;12.65;;
68353;SDS011;55274;43.060;25.618;2024-03-02T05:37:12;47.80;;;12.93;;
68353;SDS011;55274;43.060;25.618;2024-03-02T05:39:37;30.00;;;11.77;;
68353;SDS011;55274;43.060;25.618;2024-03-02T05:42:03;35.92;;;13.10;;
68353;SDS011;55274;43.060;25.618;2024-03-02T05:44:29;34.55;;;12.82;;
68353;SDS011;55274;43.060;25.618;2024-03-02T05:46:55;31.25;;;12.07;;
68353;SDS011;55274;43.060;25.618;2024-03-02T05:49:21;35.22;;;13.43;;
68353;SDS011;55274;43.060;25.618;2024-03-02T05:51:47;46.40;;;14.00;;
68353;SDS011;55274;43.060;25.618;2024-03-02T05:54:13;38.30;;;13.07;;
68353;SDS011;55274;43.060;25.618;2024-03-02T05:56:39;37.28;;;12.82;;
68353;SDS011;55274;43.060;25.618;2024-03-02T05:59:05;33.33;;;12.98;;
68353;SDS011;55274;43.060;25.618;2024-03-02T06:01:41;39.78;;;13.27;;
68353;SDS011;55274;43.060;25.618;2024-03-02T06:04:08;34.15;;;13.63;;
68353;SDS011;55274;43.060;25.618;2024-03-02T06:06:34;32.67;;;13.32;;
68353;SDS011;55274;43.060;25.618;2024-03-02T06:09:03;33.85;;;12.55;;
68353;SDS011;55274;43.060;25.618;2024-03-02T06:11:36;43.17;;;14.15;;
68353;SDS011;55274;43.060;25.618;2024-03-02T06:14:02;46.75;;;14.95;;
68353;SDS011;55274;43.060;25.618;2024-03-02T06:16:29;35.22;;;13.30;;
68353;SDS011;55274;43.060;25.618;2024-03-02T06:18:55;41.50;;;13.35;;
68353;SDS011;55274;43.060;25.618;2024-03-02T06:21:26;39.67;;;14.15;;
68353;SDS011;55274;43.060;25.618;2024-03-02T06:23:52;45.83;;;15.25;;
68353;SDS011;55274;43.060;25.618;2024-03-02T06:26:18;45.95;;;14.43;;
68353;SDS011;55274;43.060;25.618;2024-03-02T06:28:45;40.00;;;12.05;;
68353;SDS011;55274;43.060;25.618;2024-03-02T06:31:11;35.65;;;11.98;;
68353;SDS011;55274;43.060;25.618;2024-03-02T06:33:37;37.45;;;13.05;;
68353;SDS011;55274;43.060;25.618;2024-03-02T06:36:03;28.55;;;11.35;;
68353;SDS011;55274;43.060;25.618;2024-03-02T06:38:29;36.50;;;12.93;;
68353;SDS011;55274;43.060;25.618;2024-03-02T06:40:57;39.20;;;13.02;;
68353;SDS011;55274;43.060;25.618;2024-03-02T06:43:23;34.38;;;13.13;;
68353;SDS011;55274;43.060;25.618;2024-03-02T06:45:49;31.20;;;12.30;;
68353;SDS011;55274;43.060;25.618;2024-03-02T06:48:15;32.38;;;12.52;;
68353;SDS011;55274;43.060;25.618;2024-03-02T06:50:45;28.40;;;12.20;;
68353;SDS011;55274;43.060;25.618;2024-03-02T06:53:12;39.42;;;12.43;;
68353;SDS011;55274;43.060;25.618;2024-03-02T06:55:38;37.70;;;12.43;;
68353;SDS011;55274;43.060;25.618;2024-03-02T06:58:05;41.13;;;12.70;;
68353;SDS011;55274;43.060;25.618;2024-03-02T07:00:30;39.22;;;14.40;;
68353;SDS011;55274;43.060;25.618;2024-03-02T07:02:56;40.92;;;14.18;;
68353;SDS011;55274;43.060;25.618;2024-03-02T07:05:22;38.78;;;14.38;;
68353;SDS011;55274;43.060;25.618;2024-03-02T07:07:47;43.50;;;13.55;;
68353;SDS011;55274;43.060;25.618;2024-03-02T07:10:13;45.35;;;14.82;;
68353;SDS011;55274;43.060;25.618;2024-03-02T07:12:39;36.58;;;12.88;;
68353;SDS011;55274;43.060;25.618;2024-03-02T07:15:05;33.67;;;12.38;;
68353;SDS011;55274;43.060;25.618;2024-03-02T07:17:31;28.35;;;12.00;;
68353;SDS011;55274;43.060;25.618;2024-03-02T07:19:57;36.00;;;12.85;;
68353;SDS011;55274;43.060;25.618;2024-03-02T07:22:23;26.27;;;12.35;;
68353;SDS011;55274;43.060;25.618;2024-03-02T07:24:49;29.30;;;12.05;;
68353;SDS011;55274;43.060;25.618;2024-03-02T07:27:16;31.25;;;12.35;;
68353;SDS011;55274;43.060;25.618;2024-03-02T07:29:42;27.55;;;12.27;;
68353;SDS011;55274;43.060;25.618;2024-03-02T07:32:08;32.10;;;12.63;;
68353;SDS011;55274;43.060;25.618;2024-03-02T07:34:35;39.25;;;14.18;;
68353;SDS011;55274;43.060;25.618;2024-03-02T07:37:01;29.67;;;13.10;;
68353;SDS011;55274;43.060;25.618;2024-03-02T07:39:27;29.38;;;12.57;;
68353;SDS011;55274;43.060;25.618;2024-03-02T07:41:54;28.75;;;12.27;;
68353;SDS011;55274;43.060;25.618;2024-03-02T07:44:20;34.22;;;12.68;;
68353;SDS011;55274;43.060;25.618;2024-03-02T07:46:46;35.78;;;15.32;;
68353;SDS011;55274;43.060;25.618;2024-03-02T07:49:15;34.45;;;14.52;;
68353;SDS011;55274;43.060;25.618;2024-03-02T07:51:41;38.70;;;13.63;;
68353;SDS011;55274;43.060;25.618;2024-03-02T07:54:07;35.35;;;15.20;;
68353;SDS011;55274;43.060;25.618;2024-03-02T07:56:34;36.35;;;14.27;;
68353;SDS011;55274;43.060;25.618;2024-03-02T07:59:03;31.20;;;13.63;;
68353;SDS011;55274;43.060;25.618;2024-03-02T08:01:29;35.55;;;13.88;;
68353;SDS011;55274;43.060;25.618;2024-03-02T08:03:59;35.80;;;13.90;;
68353;SDS011;55274;43.060;25.618;2024-03-02T08:06:27;40.20;;;14.13;;
68353;SDS011;55274;43.060;25.618;2024-03-02T08:08:53;32.65;;;13.77;;
68353;SDS011;55274;43.060;25.618;2024-03-02T08:11:20;34.90;;;13.80;;
68353;SDS011;55274;43.060;25.618;2024-03-02T08:13:46;28.08;;;11.95;;
68353;SDS011;55274;43.060;25.618;2024-03-02T08:16:12;33.50;;;13.82;;
68353;SDS011;55274;43.060;25.618;2024-03-02T08:18:37;29.40;;;12.05;;
68353;SDS011;55274;43.060;25.618;2024-03-02T08:21:04;27.48;;;12.23;;
68353;SDS011;55274;43.060;25.618;2024-03-02T08:23:30;26.58;;;12.05;;
68353;SDS011;55274;43.060;25.618;2024-03-02T08:25:57;26.92;;;10.95;;
68353;SDS011;55274;43.060;25.618;2024-03-02T08:28:23;28.73;;;12.18;;
68353;SDS011;55274;43.060;25.618;2024-03-02T08:30:48;31.25;;;13.73;;
68353;SDS011;55274;43.060;25.618;2024-03-02T08:33:14;29.63;;;12.25;;
68353;SDS011;55274;43.060;25.618;2024-03-02T08:35:40;30.83;;;12.13;;
68353;SDS011;55274;43.060;25.618;2024-03-02T08:38:06;27.52;;;11.70;;
68353;SDS011;55274;43.060;25.618;2024-03-02T08:40:31;27.45;;;11.05;;
68353;SDS011;55274;43.060;25.618;2024-03-02T08:42:57;30.38;;;11.35;;
68353;SDS011;55274;43.060;25.618;2024-03-02T08:45:23;29.85;;;12.27;;
68353;SDS011;55274;43.060;25.618;2024-03-02T08:47:49;35.47;;;14.23;;
68353;SDS011;55274;43.060;25.618;2024-03-02T08:50:15;37.80;;;13.10;;
68353;SDS011;55274;43.060;25.618;2024-03-02T08:52:40;29.50;;;12.38;;
68353;SDS011;55274;43.060;25.618;2024-03-02T08:55:07;26.45;;;10.73;;
68353;SDS011;55274;43.060;25.618;2024-03-02T08:57:33;30.30;;;11.50;;
68353;SDS011;55274;43.060;25.618;2024-03-02T08:59:59;37.75;;;14.25;;
68353;SDS011;55274;43.060;25.618;2024-03-02T09:02:25;26.08;;;11.77;;
68353;SDS011;55274;43.060;25.618;2024-03-02T09:04:51;27.15;;;10.98;;
68353;SDS011;55274;43.060;25.618;2024-03-02T09:07:18;25.85;;;11.15;;
68353;SDS011;55274;43.060;25.618;2024-03-02T09:09:43;24.45;;;10.95;;
68353;SDS011;55274;43.060;25.618;2024-03-02T09:12:09;25.58;;;11.68;;
68353;SDS011;55274;43.060;25.618;2024-03-02T09:14:36;32.22;;;12.63;;
68353;SDS011;55274;43.060;25.618;2024-03-02T09:17:02;40.75;;;12.93;;
68353;SDS011;55274;43.060;25.618;2024-03-02T09:19:29;28.83;;;10.65;;
68353;SDS011;55274;43.060;25.618;2024-03-02T09:21:55;25.80;;;11.48;;
68353;SDS011;55274;43.060;25.618;2024-03-02T09:24:21;29.25;;;12.43;;
68353;SDS011;55274;43.060;25.618;2024-03-02T09:26:47;27.17;;;11.98;;
68353;SDS011;55274;43.060;25.618;2024-03-02T09:29:13;24.52;;;10.88;;
68353;SDS011;55274;43.060;25.618;2024-03-02T09:31:40;31.67;;;13.75;;
68353;SDS011;55274;43.060;25.618;2024-03-02T09:34:06;32.30;;;13.98;;
68353;SDS011;55274;43.060;25.618;2024-03-02T09:36:32;31.92;;;12.82;;
68353;SDS011;55274;43.060;25.618;2024-03-02T09:38:58;41.85;;;14.75;;
68353;SDS011;55274;43.060;25.618;2024-03-02T09:41:24;32.92;;;12.60;;
68353;SDS011;55274;43.060;25.618;2024-03-02T09:43:50;22.38;;;10.20;;
68353;SDS011;55274;43.060;25.618;2024-03-02T09:46:16;23.05;;;10.43;;
68353;SDS011;55274;43.060;25.618;2024-03-02T09:48:43;25.25;;;9.68;;
68353;SDS011;55274;43.060;25.618;2024-03-02T09:51:09;24.80;;;10.27;;
68353;SDS011;55274;43.060;25.618;2024-03-02T09:53:35;23.95;;;10.43;;
68353;SDS011;55274;43.060;25.618;2024-03-02T09:56:02;26.83;;;11.30;;
68353;SDS011;55274;43.060;25.618;2024-03-02T09:58:28;31.45;;;13.60;;
68353;SDS011;55274;43.060;25.618;2024-03-02T10:00:54;24.85;;;11.30;;
68353;SDS011;55274;43.060;25.618;2024-03-02T10:03:20;22.65;;;10.63;;
68353;SDS011;55274;43.060;25.618;2024-03-02T10:05:49;30.45;;;10.60;;
68353;SDS011;55274;43.060;25.618;2024-03-02T10:08:15;24.50;;;10.20;;
68353;SDS011;55274;43.060;25.618;2024-03-02T10:10:41;21.52;;;10.52;;
68353;SDS011;55274;43.060;25.618;2024-03-02T10:13:12;23.20;;;10.82;;
68353;SDS011;55274;43.060;25.618;2024-03-02T10:15:39;24.13;;;9.98;;
68353;SDS011;55274;43.060;25.618;2024-03-02T10:18:09;26.10;;;10.32;;
68353;SDS011;55274;43.060;25.618;2024-03-02T10:20:36;21.52;;;9.48;;
68353;SDS011;55274;43.060;25.618;2024-03-02T10:23:13;20.65;;;9.45;;
68353;SDS011;55274;43.060;25.618;2024-03-02T10:25:43;22.55;;;10.25;;
68353;SDS011;55274;43.060;25.618;2024-03-02T10:28:10;21.00;;;9.55;;
68353;SDS011;55274;43.060;25.618;2024-03-02T10:30:36;22.95;;;10.38;;
68353;SDS011;55274;43.060;25.618;2024-03-02T10:33:02;20.60;;;9.20;;
68353;SDS011;55274;43.060;25.618;2024-03-02T10:35:28;21.77;;;9.55;;
68353;SDS011;55274;43.060;25.618;2024-03-02T10:37:56;22.60;;;10.38;;
68353;SDS011;55274;43.060;25.618;2024-03-02T10:40:24;25.70;;;12.68;;
68353;SDS011;55274;43.060;25.618;2024-03-02T10:42:50;25.27;;;11.68;;
68353;SDS011;55274;43.060;25.618;2024-03-02T10:45:19;28.67;;;10.73;;
68353;SDS011;55274;43.060;25.618;2024-03-02T10:47:47;24.80;;;9.98;;
68353;SDS011;55274;43.060;25.618;2024-03-02T10:50:14;23.95;;;9.60;;
68353;SDS011;55274;43.060;25.618;2024-03-02T10:52:40;34.22;;;12.02;;
68353;SDS011;55274;43.060;25.618;2024-03-02T10:55:06;22.02;;;9.52;;
68353;SDS011;55274;43.060;25.618;2024-03-02T10:57:47;21.23;;;9.88;;
68353;SDS011;55274;43.060;25.618;2024-03-02T11:00:20;25.08;;;9.98;;
68353;SDS011;55274;43.060;25.618;2024-03-02T11:02:50;20.55;;;9.43;;
68353;SDS011;55274;43.060;25.618;2024-03-02T11:05:26;33.45;;;12.95;;
68353;SDS011;55274;43.060;25.618;2024-03-02T11:07:53;30.52;;;13.40;;
68353;SDS011;55274;43.060;25.618;2024-03-02T11:10:25;23.50;;;11.07;;
68353;SDS011;55274;43.060;25.618;2024-03-02T11:12:58;25.13;;;10.65;;
68353;SDS011;55274;43.060;25.618;2024-03-02T11:15:27;20.02;;;10.48;;
68353;SDS011;55274;43.060;25.618;2024-03-02T11:17:53;25.30;;;8.93;;
68353;SDS011;55274;43.060;25.618;2024-03-02T11:20:20;19.35;;;8.88;;
68353;SDS011;55274;43.060;25.618;2024-03-02T11:22:46;22.08;;;10.00;;
68353;SDS011;55274;43.060;25.618;2024-03-02T11:25:28;26.20;;;11.13;;
68353;SDS011;55274;43.060;25.618;2024-03-02T11:32:57;23.13;;;10.90;;
68353;SDS011;55274;43.060;25.618;2024-03-02T11:35:32;23.33;;;10.20;;
68353;SDS011;55274;43.060;25.618;2024-03-02T11:37:58;26.00;;;11.55;;
68353;SDS011;55274;43.060;25.618;2024-03-02T11:40:24;31.42;;;12.73;;
68353;SDS011;55274;43.060;25.618;2024-03-02T11:42:50;24.60;;;10.95;;
68353;SDS011;55274;43.060;25.618;2024-03-02T11:45:18;20.17;;;10.63;;
68353;SDS011;55274;43.060;25.618;2024-03-02T11:47:54;16.88;;;9.05;;
68353;SDS011;55274;43.060;25.618;2024-03-02T11:50:34;35.80;;;11.68;;
68353;SDS011;55274;43.060;25.618;2024-03-02T11:53:03;19.33;;;8.68;;
68353;SDS011;55274;43.060;25.618;2024-03-02T11:55:35;24.05;;;11.13;;
68353;SDS011;55274;43.060;25.618;2024-03-02T11:58:04;19.77;;;9.27;;
68353;SDS011;55274;43.060;25.618;2024-03-02T12:00:30;21.40;;;9.88;;
68353;SDS011;55274;43.060;25.618;2024-03-02T12:03:09;25.15;;;10.05;;
68353;SDS011;55274;43.060;25.618;2024-03-02T12:05:38;27.15;;;9.73;;
68353;SDS011;55274;43.060;25.618;2024-03-02T12:08:05;23.60;;;8.65;;
68353;SDS011;55274;43.060;25.618;2024-03-02T12:10:33;19.95;;;8.88;;
68353;SDS011;55274;43.060;25.618;2024-03-02T12:15:26;22.55;;;8.65;;
68353;SDS011;55274;43.060;25.618;2024-03-02T12:17:56;23.88;;;10.02;;
68353;SDS011;55274;43.060;25.618;2024-03-02T12:20:23;20.77;;;8.68;;
68353;SDS011;55274;43.060;25.618;2024-03-02T12:22:51;22.48;;;9.98;;
68353;SDS011;55274;43.060;25.618;2024-03-02T12:25:21;21.95;;;9.63;;
68353;SDS011;55274;43.060;25.618;2024-03-02T12:27:49;21.45;;;9.38;;
68353;SDS011;55274;43.060;25.618;2024-03-02T12:30:16;21.50;;;10.00;;
68353;SDS011;55274;43.060;25.618;2024-03-02T12:32:43;24.75;;;10.02;;
68353;SDS011;55274;43.060;25.618;2024-03-02T12:35:10;25.52;;;10.52;;
68353;SDS011;55274;43.060;25.618;2024-03-02T12:37:49;22.90;;;10.35;;
68353;SDS011;55274;43.060;25.618;2024-03-02T12:40:17;23.88;;;10.40;;
68353;SDS011;55274;43.060;25.618;2024-03-02T12:42:44;23.05;;;9.80;;
68353;SDS011;55274;43.060;25.618;2024-03-02T12:45:11;21.80;;;8.90;;
68353;SDS011;55274;43.060;25.618;2024-03-02T12:47:39;17.88;;;8.52;;
68353;SDS011;55274;43.060;25.618;2024-03-02T12:50:05;31.05;;;9.18;;
68353;SDS011;55274;43.060;25.618;2024-03-02T12:52:32;24.58;;;9.40;;
68353;SDS011;55274;43.060;25.618;2024-03-02T12:55:01;21.13;;;9.52;;
68353;SDS011;55274;43.060;25.618;2024-03-02T12:57:29;20.50;;;8.95;;
68353;SDS011;55274;43.060;25.618;2024-03-02T12:59:59;24.67;;;10.07;;
68353;SDS011;55274;43.060;25.618;2024-03-02T13:02:35;19.15;;;8.82;;
68353;SDS011;55274;43.060;25.618;2024-03-02T13:05:04;29.58;;;9.27;;
68353;SDS011;55274;43.060;25.618;2024-03-02T13:07:36;23.08;;;9.70;;
68353;SDS011;55274;43.060;25.618;2024-03-02T13:10:02;19.13;;;8.05;;
68353;SDS011;55274;43.060;25.618;2024-03-02T13:12:29;23.02;;;8.65;;
68353;SDS011;55274;43.060;25.618;2024-03-02T13:14:57;27.38;;;9.15;;
68353;SDS011;55274;43.060;25.618;2024-03-02T13:17:24;19.42;;;8.57;;
68353;SDS011;55274;43.060;25.618;2024-03-02T13:19:56;20.17;;;9.50;;
68353;SDS011;55274;43.060;25.618;2024-03-02T13:22:23;18.77;;;9.57;;
68353;SDS011;55274;43.060;25.618;2024-03-02T13:24:53;18.90;;;8.80;;
68353;SDS011;55274;43.060;25.618;2024-03-02T13:27:22;18.63;;;9.27;;
68353;SDS011;55274;43.060;25.618;2024-03-02T13:29:48;25.92;;;9.43;;
68353;SDS011;55274;43.060;25.618;2024-03-02T13:32:15;26.38;;;9.75;;
68353;SDS011;55274;43.060;25.618;2024-03-02T13:34:41;22.77;;;9.52;;
68353;SDS011;55274;43.060;25.618;2024-03-02T13:37:08;20.10;;;9.23;;
68353;SDS011;55274;43.060;25.618;2024-03-02T13:39:34;19.90;;;10.23;;
68353;SDS011;55274;43.060;25.618;2024-03-02T13:42:08;20.67;;;10.60;;
68353;SDS011;55274;43.060;25.618;2024-03-02T13:44:35;22.30;;;10.07;;
68353;SDS011;55274;43.060;25.618;2024-03-02T13:47:02;19.13;;;9.10;;
68353;SDS011;55274;43.060;25.618;2024-03-02T13:49:28;17.05;;;8.20;;
68353;SDS011;55274;43.060;25.618;2024-03-02T13:51:59;19.75;;;8.60;;
68353;SDS011;55274;43.060;25.618;2024-03-02T13:54:28;25.83;;;13.23;;
68353;SDS011;55274;43.060;25.618;2024-03-02T13:56:54;27.58;;;14.27;;
68353;SDS011;55274;43.060;25.618;2024-03-02T13:59:20;24.20;;;10.68;;
68353;SDS011;55274;43.060;25.618;2024-03-02T14:01:46;26.02;;;11.18;;
68353;SDS011;55274;43.060;25.618;2024-03-02T14:04:12;33.53;;;9.35;;
68353;SDS011;55274;43.060;25.618;2024-03-02T14:06:38;20.95;;;8.77;;
68353;SDS011;55274;43.060;25.618;2024-03-02T14:09:04;21.45;;;9.57;;
68353;SDS011;55274;43.060;25.618;2024-03-02T14:11:29;18.90;;;9.27;;
68353;SDS011;55274;43.060;25.618;2024-03-02T14:13:55;21.65;;;9.15;;
68353;SDS011;55274;43.060;25.618;2024-03-02T14:16:22;20.60;;;8.95;;
68353;SDS011;55274;43.060;25.618;2024-03-02T14:18:47;22.27;;;9.27;;
68353;SDS011;55274;43.060;25.618;2024-03-02T14:21:14;20.90;;;8.90;;
68353;SDS011;55274;43.060;25.618;2024-03-02T14:23:40;20.85;;;10.00;;
68353;SDS011;55274;43.060;25.618;2024-03-02T14:26:05;24.52;;;8.77;;
68353;SDS011;55274;43.060;25.618;2024-03-02T14:28:31;21.60;;;9.23;;
68353;SDS011;55274;43.060;25.618;2024-03-02T14:30:57;21.23;;;9.05;;